createdAt,value
2023-05-22T00:01:59.337Z,17.46
2023-05-22T00:04:29.925Z,17.43
2023-05-22T00:06:56.539Z,17.38
2023-05-22T00:09:24.951Z,17.35
2023-05-22T00:11:51.794Z,17.33
2023-05-22T00:14:18.539Z,17.30
2023-05-22T00:16:45.002Z,17.28
2023-05-22T00:19:16.427Z,17.26
2023-05-22T00:21:43.474Z,17.24
2023-05-22T00:24:10.012Z,17.19
2023-05-22T00:26:36.484Z,17.15
2023-05-22T00:29:03.560Z,17.09
2023-05-22T00:31:30.021Z,17.07
2023-05-22T00:33:56.562Z,17.03
2023-05-22T00:36:23.027Z,16.98
2023-05-22T00:38:49.463Z,16.96
2023-05-22T00:41:16.035Z,16.89
2023-05-22T00:43:42.614Z,16.88
2023-05-22T00:46:09.887Z,16.85
2023-05-22T00:48:36.421Z,16.85
2023-05-22T00:51:03.360Z,16.84
2023-05-22T00:53:31.088Z,16.84
2023-05-22T00:55:59.002Z,16.79
2023-05-22T00:58:26.826Z,16.75
2023-05-22T01:00:53.349Z,16.72
2023-05-22T01:03:25.792Z,16.68
2023-05-22T01:05:53.766Z,16.64
2023-05-22T01:08:20.620Z,16.63
2023-05-22T01:10:52.784Z,16.61
2023-05-22T01:13:39.991Z,16.62
2023-05-22T01:16:32.349Z,16.59
2023-05-22T01:19:04.215Z,16.58
2023-05-22T01:21:47.712Z,16.54
2023-05-22T01:24:45.116Z,16.52
2023-05-22T01:27:47.696Z,16.48
2023-05-22T01:30:19.282Z,16.45
2023-05-22T01:32:47.564Z,16.44
2023-05-22T01:35:18.886Z,16.44
2023-05-22T01:37:45.925Z,16.39
2023-05-22T01:40:13.726Z,16.38
2023-05-22T01:42:41.264Z,16.35
2023-05-22T01:45:11.749Z,16.32
2023-05-22T01:47:38.263Z,16.30
2023-05-22T01:50:05.726Z,16.29
2023-05-22T01:52:35.951Z,16.26
2023-05-22T01:55:10.118Z,16.25
2023-05-22T01:58:01.303Z,16.21
2023-05-22T02:00:29.125Z,16.15
2023-05-22T02:03:05.437Z,16.14
2023-05-22T02:05:35.677Z,16.13
2023-05-22T02:08:03.546Z,16.11
2023-05-22T02:10:31.532Z,16.10
2023-05-22T02:12:58.101Z,16.08
2023-05-22T02:15:24.583Z,16.09
2023-05-22T02:17:53.163Z,16.08
2023-05-22T02:20:19.775Z,16.05
2023-05-22T02:22:47.518Z,16.01
2023-05-22T02:25:17.137Z,16.00
2023-05-22T02:27:45.240Z,15.97
2023-05-22T02:30:12.402Z,15.93
2023-05-22T02:32:39.813Z,15.93
2023-05-22T02:35:07.151Z,15.92
2023-05-22T02:37:34.054Z,15.90
2023-05-22T02:40:00.511Z,15.87
2023-05-22T02:42:27.101Z,15.85
2023-05-22T02:44:53.508Z,15.83
2023-05-22T02:47:19.948Z,15.79
2023-05-22T02:49:47.055Z,15.76
2023-05-22T02:52:13.494Z,15.74
2023-05-22T02:54:39.967Z,15.73
2023-05-22T02:57:06.461Z,15.72
2023-05-22T02:59:33.072Z,15.71
2023-05-22T03:01:59.600Z,15.70
2023-05-22T03:04:26.084Z,15.67
2023-05-22T03:06:52.536Z,15.64
2023-05-22T03:09:20.277Z,15.62
2023-05-22T03:11:46.835Z,15.61
2023-05-22T03:14:13.301Z,15.56
2023-05-22T03:16:39.803Z,15.58
2023-05-22T03:19:10.576Z,15.60
2023-05-22T03:21:37.864Z,15.58
2023-05-22T03:24:04.713Z,15.57
2023-05-22T03:26:31.490Z,15.55
2023-05-22T03:28:58.121Z,15.52
2023-05-22T03:31:26.130Z,15.49
2023-05-22T03:33:52.697Z,15.47
2023-05-22T03:36:21.372Z,15.47
2023-05-22T03:38:47.853Z,15.47
2023-05-22T03:41:14.458Z,15.45
2023-05-22T03:43:42.732Z,15.44
2023-05-22T03:46:11.408Z,15.44
2023-05-22T03:48:38.920Z,15.44
2023-05-22T03:51:06.129Z,15.42
2023-05-22T03:53:32.570Z,15.42
2023-05-22T03:55:59.302Z,15.39
2023-05-22T03:58:25.936Z,15.36
2023-05-22T04:00:58.703Z,15.33
2023-05-22T04:03:25.336Z,15.30
2023-05-22T04:05:51.964Z,15.30
2023-05-22T04:08:18.595Z,15.32
2023-05-22T04:10:48.638Z,15.34
2023-05-22T04:13:16.722Z,15.34
2023-05-22T04:15:46.835Z,15.34
2023-05-22T04:18:14.315Z,15.35
2023-05-22T04:20:41.231Z,15.36
2023-05-22T04:23:08.063Z,15.38
2023-05-22T04:25:34.648Z,15.38
2023-05-22T04:28:04.157Z,15.39
2023-05-22T04:30:34.002Z,15.40
2023-05-22T04:33:00.837Z,15.40
2023-05-22T04:35:29.466Z,15.41
2023-05-22T04:38:02.373Z,15.43
2023-05-22T04:40:30.217Z,15.45
2023-05-22T04:42:59.826Z,15.47
2023-05-22T04:45:28.662Z,15.50
2023-05-22T04:47:55.954Z,15.52
2023-05-22T04:50:23.835Z,15.56
2023-05-22T04:52:50.387Z,15.58
2023-05-22T04:55:17.206Z,15.64
2023-05-22T04:57:47.448Z,15.68
2023-05-22T05:00:16.539Z,15.73
2023-05-22T05:02:43.184Z,15.80
2023-05-22T05:05:09.703Z,15.87
2023-05-22T05:07:39.806Z,15.94
2023-05-22T05:10:07.369Z,16.00
2023-05-22T05:12:34.061Z,16.06
2023-05-22T05:15:00.747Z,16.13
2023-05-22T05:17:27.303Z,16.19
2023-05-22T05:19:53.925Z,16.27
2023-05-22T05:22:20.416Z,16.35
2023-05-22T05:24:46.851Z,16.40
2023-05-22T05:27:13.927Z,16.44
2023-05-22T05:29:41.261Z,16.49
2023-05-22T05:32:08.135Z,16.56
2023-05-22T05:34:34.716Z,16.64
2023-05-22T05:37:02.737Z,16.73
2023-05-22T05:39:29.672Z,16.80
2023-05-22T05:41:56.253Z,16.90
2023-05-22T05:44:22.746Z,17.00
2023-05-22T05:46:49.177Z,17.11
2023-05-22T05:49:15.667Z,17.16
2023-05-22T05:51:42.112Z,17.23
2023-05-22T05:54:08.527Z,17.29
2023-05-22T05:56:35.041Z,17.35
2023-05-22T05:59:01.602Z,17.42
2023-05-22T06:01:28.130Z,17.51
2023-05-22T06:03:54.759Z,17.56
2023-05-22T06:06:21.708Z,17.62
2023-05-22T06:08:48.139Z,17.70
2023-05-22T06:11:14.558Z,17.72
2023-05-22T06:13:41.625Z,17.77
2023-05-22T06:16:08.111Z,17.83
2023-05-22T06:18:34.618Z,17.87
2023-05-22T06:21:01.127Z,17.91
2023-05-22T06:23:27.599Z,17.99
2023-05-22T06:25:54.201Z,18.05
2023-05-22T06:28:20.711Z,18.15
2023-05-22T06:30:47.273Z,18.23
2023-05-22T06:33:14.516Z,18.33
2023-05-22T06:35:42.028Z,18.39
2023-05-22T06:38:08.630Z,18.49
2023-05-22T06:40:35.081Z,18.54
2023-05-22T06:43:01.563Z,18.59
2023-05-22T06:45:28.044Z,18.61
2023-05-22T06:47:55.134Z,18.65
2023-05-22T06:50:22.288Z,18.71
2023-05-22T06:52:49.299Z,18.76
2023-05-22T06:55:15.846Z,18.79
2023-05-22T06:57:42.297Z,18.84
2023-05-22T07:00:11.750Z,18.87
2023-05-22T07:02:38.566Z,18.90
2023-05-22T07:05:05.557Z,18.94
2023-05-22T07:07:32.094Z,18.98
2023-05-22T07:09:58.643Z,19.03
2023-05-22T07:12:27.708Z,19.06
2023-05-22T07:14:54.739Z,19.09
2023-05-22T07:17:21.811Z,19.14
2023-05-22T07:19:48.578Z,19.13
2023-05-22T07:22:16.045Z,19.15
2023-05-22T07:24:43.098Z,19.20
2023-05-22T07:27:09.690Z,19.26
2023-05-22T07:29:36.308Z,19.30
2023-05-22T07:32:03.145Z,19.37
2023-05-22T07:34:34.044Z,19.45
2023-05-22T07:37:01.390Z,19.53
2023-05-22T07:39:27.969Z,19.53
2023-05-22T07:41:56.070Z,19.66
2023-05-22T07:44:23.471Z,19.71
2023-05-22T07:46:49.991Z,19.75
2023-05-22T07:49:19.596Z,19.72
2023-05-22T07:51:46.644Z,19.73
2023-05-22T07:54:15.877Z,19.77
2023-05-22T07:56:42.564Z,19.89
2023-05-22T07:59:11.970Z,19.98
2023-05-22T08:01:39.238Z,20.07
2023-05-22T08:04:06.237Z,20.14
2023-05-22T08:06:35.022Z,20.15
2023-05-22T08:09:05.075Z,20.14
2023-05-22T08:11:31.744Z,20.15
2023-05-22T08:13:58.263Z,20.22
2023-05-22T08:16:24.982Z,20.32
2023-05-22T08:18:51.516Z,20.37
2023-05-22T08:21:18.746Z,20.48
2023-05-22T08:23:45.250Z,20.47
2023-05-22T08:26:11.675Z,20.52
2023-05-22T08:28:41.949Z,20.52
2023-05-22T08:31:08.448Z,20.50
2023-05-22T08:33:34.907Z,20.43
2023-05-22T08:36:01.334Z,20.42
2023-05-22T08:38:27.834Z,20.37
2023-05-22T08:40:55.732Z,20.34
2023-05-22T08:43:22.285Z,20.34
2023-05-22T08:45:56.054Z,20.35
2023-05-22T08:48:23.705Z,20.39
2023-05-22T08:50:57.470Z,20.47
2023-05-22T08:53:25.907Z,20.52
2023-05-22T08:55:53.657Z,20.59
2023-05-22T08:58:21.029Z,20.66
2023-05-22T09:00:47.792Z,20.69
2023-05-22T09:03:15.272Z,20.71
2023-05-22T09:05:41.860Z,20.78
2023-05-22T09:08:18.906Z,20.74
2023-05-22T09:10:46.032Z,20.76
2023-05-22T09:13:24.562Z,20.71
2023-05-22T09:15:51.063Z,20.70
2023-05-22T09:18:17.676Z,20.74
2023-05-22T09:20:44.417Z,20.75
2023-05-22T09:23:17.690Z,20.84
2023-05-22T09:25:44.836Z,20.96
2023-05-22T09:28:12.699Z,21.09
2023-05-22T09:30:39.874Z,21.22
2023-05-22T09:33:09.008Z,21.32
2023-05-22T09:35:38.841Z,21.45
2023-05-22T09:38:06.031Z,21.55
2023-05-22T09:40:34.994Z,21.62
2023-05-22T09:43:06.541Z,21.78
2023-05-22T09:45:36.123Z,21.88
2023-05-22T09:48:06.708Z,21.97
2023-05-22T09:50:33.222Z,22.12
2023-05-22T09:53:04.232Z,22.23
2023-05-22T09:55:32.081Z,22.37
2023-05-22T09:58:02.880Z,22.58
2023-05-22T10:00:30.523Z,22.71
2023-05-22T10:03:03.319Z,22.83
2023-05-22T10:05:33.928Z,22.92
2023-05-22T10:08:10.377Z,23.04
2023-05-22T10:10:38.311Z,23.25
2023-05-22T10:13:06.230Z,23.36
2023-05-22T10:15:32.932Z,23.46
2023-05-22T10:18:00.750Z,23.59
2023-05-22T10:20:28.785Z,23.71
2023-05-22T10:22:55.987Z,23.81
2023-05-22T10:25:23.121Z,23.95
2023-05-22T10:27:52.825Z,23.91
2023-05-22T10:30:35.734Z,23.97
2023-05-22T10:33:24.975Z,24.07
2023-05-22T10:36:11.758Z,24.07
2023-05-22T10:38:50.512Z,24.11
2023-05-22T10:41:17.389Z,24.22
2023-05-22T10:43:44.249Z,24.35
2023-05-22T10:46:12.888Z,24.47
2023-05-22T10:48:40.863Z,24.52
2023-05-22T10:51:08.849Z,24.46
2023-05-22T10:53:36.784Z,24.45
2023-05-22T10:56:11.715Z,24.42
2023-05-22T10:58:41.425Z,24.53
2023-05-22T11:01:12.745Z,24.54
2023-05-22T11:04:00.296Z,24.51
2023-05-22T11:06:45.992Z,24.54
2023-05-22T11:09:54.082Z,24.48
2023-05-22T11:12:24.334Z,24.49
2023-05-22T11:14:57.859Z,24.58
2023-05-22T11:17:29.025Z,24.73
2023-05-22T11:20:00.548Z,24.87
2023-05-22T11:22:31.491Z,25.11
2023-05-22T11:24:59.607Z,25.15
2023-05-22T11:27:26.702Z,25.37
2023-05-22T11:29:54.695Z,25.40
2023-05-22T11:32:22.436Z,25.50
2023-05-22T11:34:50.574Z,25.50
2023-05-22T11:37:20.664Z,25.68
2023-05-22T11:39:58.167Z,25.82
2023-05-22T11:42:24.972Z,25.81
2023-05-22T11:44:51.457Z,25.70
2023-05-22T11:47:18.422Z,25.67
2023-05-22T11:49:45.088Z,25.51
2023-05-22T11:52:11.713Z,25.56
2023-05-22T11:54:38.950Z,25.49
2023-05-22T11:57:09.280Z,25.56
2023-05-22T11:59:36.146Z,25.50
2023-05-22T12:02:02.741Z,25.44
2023-05-22T12:04:29.688Z,25.60
2023-05-22T12:06:56.635Z,25.51
2023-05-22T12:09:23.580Z,25.57
2023-05-22T12:11:50.320Z,25.71
2023-05-22T12:14:16.866Z,25.68
2023-05-22T12:16:44.685Z,25.82
2023-05-22T12:19:12.887Z,25.91
2023-05-22T12:21:41.762Z,25.99
2023-05-22T12:24:08.400Z,26.14
2023-05-22T12:26:36.096Z,26.27
2023-05-22T12:29:03.969Z,26.40
2023-05-22T12:31:37.454Z,26.63
2023-05-22T12:34:06.630Z,26.98
2023-05-22T12:36:40.615Z,27.24
2023-05-22T12:39:09.267Z,27.32
2023-05-22T12:41:36.546Z,27.34
2023-05-22T12:44:04.007Z,27.53
2023-05-22T12:46:31.909Z,27.57
2023-05-22T12:48:59.328Z,27.41
2023-05-22T12:51:29.083Z,27.54
2023-05-22T12:53:59.946Z,27.55
2023-05-22T12:56:26.658Z,27.77
2023-05-22T12:58:53.148Z,27.92
2023-05-22T13:01:19.767Z,27.99
2023-05-22T13:03:46.531Z,28.05
2023-05-22T13:06:13.038Z,28.07
2023-05-22T13:08:39.469Z,28.11
2023-05-22T13:11:06.031Z,28.08
2023-05-22T13:13:32.553Z,28.07
2023-05-22T13:15:59.005Z,28.09
2023-05-22T13:18:25.555Z,28.11
2023-05-22T13:20:52.000Z,28.38
2023-05-22T13:23:18.450Z,28.48
2023-05-22T13:25:44.978Z,28.25
2023-05-22T13:28:11.490Z,28.30
2023-05-22T13:30:38.522Z,28.30
2023-05-22T13:33:05.241Z,28.33
2023-05-22T13:35:31.821Z,28.51
2023-05-22T13:37:58.279Z,28.56
2023-05-22T13:40:24.820Z,28.66
2023-05-22T13:42:52.382Z,28.68
2023-05-22T13:45:19.092Z,28.50
2023-05-22T13:47:45.645Z,28.57
2023-05-22T13:50:12.167Z,28.58
2023-05-22T13:52:38.723Z,28.63
2023-05-22T13:55:05.781Z,28.59
2023-05-22T13:57:32.278Z,28.43
2023-05-22T13:59:58.920Z,28.36
2023-05-22T14:02:25.504Z,28.18
2023-05-22T14:04:52.105Z,28.08
2023-05-22T14:07:18.742Z,28.12
2023-05-22T14:09:45.318Z,27.99
2023-05-22T14:12:11.757Z,27.91
2023-05-22T14:14:38.305Z,28.00
2023-05-22T14:17:07.742Z,27.89
2023-05-22T14:19:34.476Z,27.88
2023-05-22T14:22:01.115Z,27.73
2023-05-22T14:24:27.622Z,27.54
2023-05-22T14:26:57.891Z,27.46
2023-05-22T14:29:25.795Z,27.44
2023-05-22T14:31:55.113Z,27.49
2023-05-22T14:34:21.588Z,27.50
2023-05-22T14:36:48.308Z,27.46
2023-05-22T14:39:14.876Z,27.44
2023-05-22T14:41:41.332Z,27.37
2023-05-22T14:44:07.840Z,27.16
2023-05-22T14:46:34.521Z,27.04
2023-05-22T14:49:01.053Z,26.79
2023-05-22T14:51:27.553Z,26.67
2023-05-22T14:53:54.008Z,26.64
2023-05-22T14:56:21.593Z,26.63
2023-05-22T14:58:48.086Z,26.70
2023-05-22T15:01:14.614Z,26.83
2023-05-22T15:03:41.163Z,27.08
2023-05-22T15:06:07.706Z,27.12
2023-05-22T15:08:34.140Z,27.21
2023-05-22T15:11:00.793Z,27.15
2023-05-22T15:13:27.384Z,27.16
2023-05-22T15:15:54.074Z,27.20
2023-05-22T15:18:20.579Z,27.23
2023-05-22T15:20:47.058Z,27.25
2023-05-22T15:23:13.685Z,27.32
2023-05-22T15:25:40.426Z,27.32
2023-05-22T15:28:07.799Z,27.38
2023-05-22T15:30:38.915Z,27.46
2023-05-22T15:33:05.497Z,27.30
2023-05-22T15:35:32.181Z,27.19
2023-05-22T15:37:58.958Z,27.00
2023-05-22T15:40:25.839Z,26.70
2023-05-22T15:42:52.955Z,26.49
2023-05-22T15:45:20.006Z,26.34
2023-05-22T15:47:47.138Z,26.23
2023-05-22T15:50:13.761Z,26.02
2023-05-22T15:52:40.558Z,25.92
2023-05-22T15:55:07.330Z,25.84
2023-05-22T15:57:34.204Z,25.90
2023-05-22T16:00:00.852Z,25.90
2023-05-22T16:02:27.358Z,25.90
2023-05-22T16:04:53.912Z,25.91
2023-05-22T16:07:20.541Z,25.96
2023-05-22T16:09:47.108Z,26.01
2023-05-22T16:12:13.544Z,25.99
2023-05-22T16:14:40.423Z,25.90
2023-05-22T16:17:07.077Z,25.94
2023-05-22T16:19:33.756Z,25.90
2023-05-22T16:22:00.396Z,25.93
2023-05-22T16:24:26.883Z,25.95
2023-05-22T16:26:53.354Z,25.90
2023-05-22T16:29:20.670Z,25.79
2023-05-22T16:31:47.725Z,25.70
2023-05-22T16:34:14.221Z,25.57
2023-05-22T16:36:40.825Z,25.52
2023-05-22T16:39:07.360Z,25.32
2023-05-22T16:41:34.099Z,25.20
2023-05-22T16:44:00.953Z,25.10
2023-05-22T16:46:27.976Z,25.01
2023-05-22T16:48:54.625Z,24.88
2023-05-22T16:51:21.195Z,24.81
2023-05-22T16:53:49.548Z,24.68
2023-05-22T16:56:20.220Z,24.60
2023-05-22T16:58:47.582Z,24.46
2023-05-22T17:01:14.182Z,24.41
2023-05-22T17:03:40.812Z,24.38
2023-05-22T17:06:08.821Z,24.47
2023-05-22T17:08:35.256Z,24.49
2023-05-22T17:11:01.704Z,24.56
2023-05-22T17:13:28.137Z,24.56
2023-05-22T17:15:54.625Z,24.59
2023-05-22T17:18:21.362Z,24.54
2023-05-22T17:20:49.271Z,24.37
2023-05-22T17:23:16.308Z,24.37
2023-05-22T17:25:43.019Z,24.29
2023-05-22T17:28:09.545Z,24.19
2023-05-22T17:30:36.192Z,24.16
2023-05-22T17:33:03.736Z,24.07
2023-05-22T17:35:30.492Z,24.07
2023-05-22T17:37:57.032Z,23.99
2023-05-22T17:40:29.519Z,23.94
2023-05-22T17:43:06.797Z,23.87
2023-05-22T17:45:33.349Z,23.78
2023-05-22T17:47:59.847Z,23.71
2023-05-22T17:50:26.339Z,23.56
2023-05-22T17:52:52.937Z,23.47
2023-05-22T17:55:20.899Z,23.31
2023-05-22T17:57:47.467Z,23.25
2023-05-22T18:00:14.611Z,23.20
2023-05-22T18:02:41.230Z,23.11
2023-05-22T18:05:08.458Z,23.04
2023-05-22T18:07:34.974Z,22.94
2023-05-22T18:10:01.522Z,22.91
2023-05-22T18:12:31.531Z,22.88
2023-05-22T18:14:58.935Z,22.83
2023-05-22T18:17:25.423Z,22.74
2023-05-22T18:19:51.849Z,22.72
2023-05-22T18:22:18.332Z,22.69
2023-05-22T18:24:44.769Z,22.63
2023-05-22T18:27:11.212Z,22.57
2023-05-22T18:29:37.676Z,22.55
2023-05-22T18:32:05.071Z,22.43
2023-05-22T18:34:32.249Z,22.38
2023-05-22T18:36:59.523Z,22.31
2023-05-22T18:39:25.993Z,22.22
2023-05-22T18:41:52.444Z,22.20
2023-05-22T18:44:18.959Z,22.13
2023-05-22T18:46:45.446Z,22.08
2023-05-22T18:49:12.011Z,22.05
2023-05-22T18:51:38.582Z,21.99
2023-05-22T18:54:05.252Z,21.97
2023-05-22T18:56:31.797Z,21.89
2023-05-22T18:58:58.262Z,21.88
2023-05-22T19:01:24.737Z,21.87
2023-05-22T19:03:51.173Z,21.82
2023-05-22T19:06:18.824Z,21.74
2023-05-22T19:08:45.640Z,21.71
2023-05-22T19:11:12.101Z,21.65
2023-05-22T19:13:38.544Z,21.58
2023-05-22T19:16:05.118Z,21.56
2023-05-22T19:18:31.758Z,21.54
2023-05-22T19:20:58.369Z,21.52
2023-05-22T19:23:24.836Z,21.50
2023-05-22T19:25:52.251Z,21.49
2023-05-22T19:28:19.080Z,21.44
2023-05-22T19:30:45.934Z,21.40
2023-05-22T19:33:14.671Z,21.38
2023-05-22T19:35:41.187Z,21.31
2023-05-22T19:38:07.630Z,21.25
2023-05-22T19:40:34.085Z,21.22
2023-05-22T19:43:01.363Z,21.20
2023-05-22T19:45:28.255Z,21.17
2023-05-22T19:47:55.552Z,21.13
2023-05-22T19:50:22.303Z,21.13
2023-05-22T19:52:48.933Z,21.08
2023-05-22T19:55:15.725Z,21.05
2023-05-22T19:57:44.334Z,21.02
2023-05-22T20:00:11.994Z,21.00
2023-05-22T20:02:39.918Z,20.94
2023-05-22T20:05:09.417Z,20.88
2023-05-22T20:07:36.402Z,20.85
2023-05-22T20:10:06.414Z,20.85
2023-05-22T20:12:33.598Z,20.79
2023-05-22T20:15:00.158Z,20.78
2023-05-22T20:17:26.645Z,20.77
2023-05-22T20:19:54.054Z,20.74
2023-05-22T20:22:20.583Z,20.67
2023-05-22T20:24:47.302Z,20.61
2023-05-22T20:27:13.777Z,20.60
2023-05-22T20:29:40.566Z,20.58
2023-05-22T20:32:07.244Z,20.59
2023-05-22T20:34:33.801Z,20.54
2023-05-22T20:37:00.455Z,20.54
2023-05-22T20:39:26.907Z,20.54
2023-05-22T20:41:54.346Z,20.51
2023-05-22T20:44:24.765Z,20.44
2023-05-22T20:46:54.202Z,20.38
2023-05-22T20:49:21.264Z,20.36
2023-05-22T20:51:49.965Z,20.35
2023-05-22T20:54:17.798Z,20.33
2023-05-22T20:56:44.274Z,20.28
2023-05-22T20:59:10.828Z,20.25
2023-05-22T21:01:37.663Z,20.20
2023-05-22T21:04:04.198Z,20.16
2023-05-22T21:06:31.580Z,20.14
2023-05-22T21:09:01.585Z,20.11
2023-05-22T21:11:28.475Z,20.12
2023-05-22T21:13:54.936Z,20.11
2023-05-22T21:16:21.532Z,20.10
2023-05-22T21:18:48.023Z,20.11
2023-05-22T21:21:15.849Z,20.13
2023-05-22T21:23:43.209Z,20.13
2023-05-22T21:26:09.692Z,20.13
2023-05-22T21:28:36.531Z,20.15
2023-05-22T21:31:03.098Z,20.13
2023-05-22T21:33:29.584Z,20.14
2023-05-22T21:35:56.101Z,20.12
2023-05-22T21:38:22.535Z,20.07
2023-05-22T21:40:48.939Z,20.07
2023-05-22T21:43:15.376Z,20.03
2023-05-22T21:45:41.865Z,20.00
2023-05-22T21:48:08.438Z,19.98
2023-05-22T21:50:34.935Z,19.95
2023-05-22T21:53:01.444Z,19.93
2023-05-22T21:55:27.910Z,19.90
2023-05-22T21:57:55.660Z,19.87
2023-05-22T22:00:22.761Z,19.84
2023-05-22T22:02:49.300Z,19.83
2023-05-22T22:05:18.513Z,19.82
2023-05-22T22:07:44.958Z,19.81
2023-05-22T22:10:11.430Z,19.78
2023-05-22T22:12:37.869Z,19.79
2023-05-22T22:15:04.632Z,19.78
2023-05-22T22:17:31.069Z,19.78
2023-05-22T22:19:57.504Z,19.76
2023-05-22T22:22:24.898Z,19.75
2023-05-22T22:24:51.656Z,19.74
2023-05-22T22:27:19.610Z,19.76
2023-05-22T22:29:46.455Z,19.74
2023-05-22T22:32:13.118Z,19.69
2023-05-22T22:34:39.844Z,19.64
2023-05-22T22:37:06.961Z,19.63
2023-05-22T22:39:33.593Z,19.54
2023-05-22T22:42:06.244Z,19.48
2023-05-22T22:44:32.783Z,19.43
2023-05-22T22:47:01.702Z,19.41
2023-05-22T22:49:28.287Z,19.34
2023-05-22T22:51:54.729Z,19.25
2023-05-22T22:54:21.178Z,19.21
2023-05-22T22:56:49.631Z,19.17
2023-05-22T22:59:17.198Z,19.13
2023-05-22T23:01:43.910Z,19.07
2023-05-22T23:04:10.649Z,19.01
2023-05-22T23:06:37.540Z,18.95
2023-05-22T23:09:04.299Z,18.91
2023-05-22T23:11:37.233Z,18.88
2023-05-22T23:14:09.998Z,18.82
2023-05-22T23:16:37.489Z,18.81
2023-05-22T23:19:04.867Z,18.77
2023-05-22T23:21:32.159Z,18.75
2023-05-22T23:23:59.392Z,18.76
2023-05-22T23:26:26.793Z,18.72
2023-05-22T23:28:53.458Z,18.70
2023-05-22T23:31:25.757Z,18.68
2023-05-22T23:33:52.974Z,18.65
2023-05-22T23:36:19.482Z,18.55
2023-05-22T23:38:48.803Z,18.51
2023-05-22T23:41:17.364Z,18.48
2023-05-22T23:43:44.640Z,18.46
2023-05-22T23:46:13.984Z,18.43
2023-05-22T23:48:41.699Z,18.39
2023-05-22T23:51:14.202Z,18.39
2023-05-22T23:53:41.870Z,18.34
2023-05-22T23:56:09.296Z,18.32
2023-05-22T23:58:37.608Z,18.31
